sensor_id;sensor_type;location;lat;lon;timestamp;pressure;altitude;pressure_sealevel;temperature;humidity
48614;BME280;34408;51.426;5.444;2022-12-18T00:01:16;102774.88;;;3.32;52.29
48614;BME280;34408;51.426;5.444;2022-12-18T00:03:44;102765.34;;;3.29;51.57
48614;BME280;34408;51.426;5.444;2022-12-18T00:06:12;102754.13;;;3.25;51.73
48614;BME280;34408;51.426;5.444;2022-12-18T00:08:41;102764.50;;;3.29;51.44
48614;BME280;34408;51.426;5.444;2022-12-18T00:11:12;102764.63;;;3.27;51.98
48614;BME280;34408;51.426;5.444;2022-12-18T00:13:40;102767.41;;;3.25;51.91
48614;BME280;34408;51.426;5.444;2022-12-18T00:16:11;102765.84;;;3.23;51.81
48614;BME280;34408;51.426;5.444;2022-12-18T00:18:40;102765.84;;;3.23;51.52
48614;BME280;34408;51.426;5.444;2022-12-18T00:21:11;102770.31;;;3.22;51.38
48614;BME280;34408;51.426;5.444;2022-12-18T00:23:40;102760.66;;;3.21;51.02
48614;BME280;34408;51.426;5.444;2022-12-18T00:26:11;102751.13;;;3.19;51.05
48614;BME280;34408;51.426;5.444;2022-12-18T00:28:39;102742.69;;;3.14;51.69
48614;BME280;34408;51.426;5.444;2022-12-18T00:31:09;102733.03;;;3.13;51.10
48614;BME280;34408;51.426;5.444;2022-12-18T00:33:38;102730.25;;;3.14;50.88
48614;BME280;34408;51.426;5.444;2022-12-18T00:36:09;102737.25;;;3.15;50.95
48614;BME280;34408;51.426;5.444;2022-12-18T00:38:39;102733.75;;;3.15;51.35
48614;BME280;34408;51.426;5.444;2022-12-18T00:41:08;102728.56;;;3.13;51.69
48614;BME280;34408;51.426;5.444;2022-12-18T00:43:36;102727.00;;;3.11;51.77
48614;BME280;34408;51.426;5.444;2022-12-18T00:46:04;102727.72;;;3.13;50.86
48614;BME280;34408;51.426;5.444;2022-12-18T00:48:32;102720.72;;;3.12;51.35
48614;BME280;34408;51.426;5.444;2022-12-18T00:51:01;102733.16;;;3.11;51.03
48614;BME280;34408;51.426;5.444;2022-12-18T00:53:29;102723.03;;;3.05;51.57
48614;BME280;34408;51.426;5.444;2022-12-18T00:55:57;102724.72;;;3.06;51.30
48614;BME280;34408;51.426;5.444;2022-12-18T00:58:24;102705.81;;;3.00;51.26
48614;BME280;34408;51.426;5.444;2022-12-18T01:00:52;102724.72;;;3.06;50.83
48614;BME280;34408;51.426;5.444;2022-12-18T01:03:20;102726.53;;;3.06;51.14
48614;BME280;34408;51.426;5.444;2022-12-18T01:05:48;102739.09;;;3.04;51.39
48614;BME280;34408;51.426;5.444;2022-12-18T01:08:17;102732.94;;;3.03;51.03
48614;BME280;34408;51.426;5.444;2022-12-18T01:10:45;102735.72;;;3.02;50.57
48614;BME280;34408;51.426;5.444;2022-12-18T01:13:12;102745.50;;;3.01;51.19
48614;BME280;34408;51.426;5.444;2022-12-18T01:15:40;102747.31;;;3.01;50.59
48614;BME280;34408;51.426;5.444;2022-12-18T01:18:08;102749.13;;;3.00;50.91
48614;BME280;34408;51.426;5.444;2022-12-18T01:20:37;102749.25;;;2.99;50.96
48614;BME280;34408;51.426;5.444;2022-12-18T01:23:05;102750.47;;;2.94;50.39
48614;BME280;34408;51.426;5.444;2022-12-18T01:25:35;102753.00;;;2.96;50.32
48614;BME280;34408;51.426;5.444;2022-12-18T01:28:03;102738.78;;;2.86;51.02
48614;BME280;34408;51.426;5.444;2022-12-18T01:30:30;102751.31;;;2.95;50.92
48614;BME280;34408;51.426;5.444;2022-12-18T01:32:58;102743.59;;;2.92;51.03
48614;BME280;34408;51.426;5.444;2022-12-18T01:35:26;102745.53;;;2.90;50.35
48614;BME280;34408;51.426;5.444;2022-12-18T01:37:54;102744.69;;;2.89;51.15
48614;BME280;34408;51.426;5.444;2022-12-18T01:40:22;102742.03;;;2.89;51.17
48614;BME280;34408;51.426;5.444;2022-12-18T01:42:52;102730.72;;;2.87;50.67
48614;BME280;34408;51.426;5.444;2022-12-18T01:45:26;102742.28;;;2.86;50.40
48614;BME280;34408;51.426;5.444;2022-12-18T01:47:56;102728.22;;;2.75;50.81
48614;BME280;34408;51.426;5.444;2022-12-18T01:50:28;102737.38;;;2.82;50.46
48614;BME280;34408;51.426;5.444;2022-12-18T01:53:02;102734.72;;;2.82;50.41
48614;BME280;34408;51.426;5.444;2022-12-18T01:55:35;102734.97;;;2.79;50.85
48614;BME280;34408;51.426;5.444;2022-12-18T01:58:05;102735.09;;;2.77;50.61
48614;BME280;34408;51.426;5.444;2022-12-18T02:00:33;102723.28;;;2.70;50.83
48614;BME280;34408;51.426;5.444;2022-12-18T02:03:01;102727.38;;;2.74;50.69
48614;BME280;34408;51.426;5.444;2022-12-18T02:05:38;102727.50;;;2.73;50.50
48614;BME280;34408;51.426;5.444;2022-12-18T02:08:10;102729.44;;;2.71;50.35
48614;BME280;34408;51.426;5.444;2022-12-18T02:10:43;102724.47;;;2.66;50.36
48614;BME280;34408;51.426;5.444;2022-12-18T02:13:19;102725.09;;;2.70;50.84
48614;BME280;34408;51.426;5.444;2022-12-18T02:15:54;102733.28;;;2.67;51.05
48614;BME280;34408;51.426;5.444;2022-12-18T02:18:28;102726.41;;;2.64;50.82
48614;BME280;34408;51.426;5.444;2022-12-18T02:21:07;102729.06;;;2.64;50.58
48614;BME280;34408;51.426;5.444;2022-12-18T02:23:47;102724.72;;;2.63;50.12
48614;BME280;34408;51.426;5.444;2022-12-18T02:26:21;102725.69;;;2.62;50.29
48614;BME280;34408;51.426;5.444;2022-12-18T02:28:56;102721.72;;;2.56;50.28
48614;BME280;34408;51.426;5.444;2022-12-18T02:31:27;102732.09;;;2.59;50.71
48614;BME280;34408;51.426;5.444;2022-12-18T02:33:58;102728.72;;;2.57;50.71
48614;BME280;34408;51.426;5.444;2022-12-18T02:36:28;102711.59;;;2.50;50.28
48614;BME280;34408;51.426;5.444;2022-12-18T02:38:58;102714.97;;;2.52;50.16
48614;BME280;34408;51.426;5.444;2022-12-18T02:41:28;102714.97;;;2.52;50.34
48614;BME280;34408;51.426;5.444;2022-12-18T02:44:00;102710.63;;;2.51;50.05
48614;BME280;34408;51.426;5.444;2022-12-18T02:46:31;102713.53;;;2.48;50.02
48614;BME280;34408;51.426;5.444;2022-12-18T02:49:11;102710.16;;;2.46;50.43
48614;BME280;34408;51.426;5.444;2022-12-18T02:51:49;102704.97;;;2.45;50.51
48614;BME280;34408;51.426;5.444;2022-12-18T02:54:26;102691.00;;;2.43;50.11
48614;BME280;34408;51.426;5.444;2022-12-18T02:57:07;102683.03;;;2.43;50.33
48614;BME280;34408;51.426;5.444;2022-12-18T02:59:41;102685.94;;;2.40;50.36
48614;BME280;34408;51.426;5.444;2022-12-18T03:02:19;102691.97;;;2.42;50.52
48614;BME280;34408;51.426;5.444;2022-12-18T03:04:54;102697.38;;;2.40;50.01
48614;BME280;34408;51.426;5.444;2022-12-18T03:07:28;102701.97;;;2.38;50.16
48614;BME280;34408;51.426;5.444;2022-12-18T03:10:01;102685.34;;;2.36;50.53
48614;BME280;34408;51.426;5.444;2022-12-18T03:12:32;102688.97;;;2.35;50.39
48614;BME280;34408;51.426;5.444;2022-12-18T03:15:08;102681.13;;;2.34;50.06
48614;BME280;34408;51.426;5.444;2022-12-18T03:17:46;102676.91;;;2.31;50.13
48614;BME280;34408;51.426;5.444;2022-12-18T03:20:18;102672.69;;;2.28;50.11
48614;BME280;34408;51.426;5.444;2022-12-18T03:22:51;102670.75;;;2.31;49.83
48614;BME280;34408;51.426;5.444;2022-12-18T03:25:21;102683.28;;;2.28;50.25
48614;BME280;34408;51.426;5.444;2022-12-18T03:27:55;102680.78;;;2.27;49.95
48614;BME280;34408;51.426;5.444;2022-12-18T03:30:25;102671.13;;;2.26;49.66
48614;BME280;34408;51.426;5.444;2022-12-18T03:32:58;102674.88;;;2.23;50.35
48614;BME280;34408;51.426;5.444;2022-12-18T03:35:33;102689.69;;;2.26;50.00
48614;BME280;34408;51.426;5.444;2022-12-18T03:38:02;102681.00;;;2.24;50.05
48614;BME280;34408;51.426;5.444;2022-12-18T03:40:35;102687.41;;;2.21;49.91
48614;BME280;34408;51.426;5.444;2022-12-18T03:43:13;102688.25;;;2.22;49.97
48614;BME280;34408;51.426;5.444;2022-12-18T03:45:50;102692.84;;;2.20;49.91
48614;BME280;34408;51.426;5.444;2022-12-18T03:48:27;102681.50;;;2.18;50.05
48614;BME280;34408;51.426;5.444;2022-12-18T03:50:58;102681.63;;;2.16;49.86
48614;BME280;34408;51.426;5.444;2022-12-18T03:53:34;102672.09;;;2.14;49.55
48614;BME280;34408;51.426;5.444;2022-12-18T03:56:05;102675.00;;;2.11;50.16
48614;BME280;34408;51.426;5.444;2022-12-18T03:58:37;102667.88;;;2.11;49.98
48614;BME280;34408;51.426;5.444;2022-12-18T04:01:08;102658.25;;;2.10;49.86
48614;BME280;34408;51.426;5.444;2022-12-18T04:03:39;102652.94;;;2.10;50.04
48614;BME280;34408;51.426;5.444;2022-12-18T04:06:09;102628.00;;;2.02;50.51
48614;BME280;34408;51.426;5.444;2022-12-18T04:08:37;102642.56;;;2.07;50.44
48614;BME280;34408;51.426;5.444;2022-12-18T04:11:06;102641.72;;;2.07;49.97
48614;BME280;34408;51.426;5.444;2022-12-18T04:13:36;102632.34;;;2.03;50.29
48614;BME280;34408;51.426;5.444;2022-12-18T04:16:06;102629.69;;;2.03;49.76
48614;BME280;34408;51.426;5.444;2022-12-18T04:18:34;102629.69;;;2.03;50.12
48614;BME280;34408;51.426;5.444;2022-12-18T04:21:01;102628.84;;;2.02;50.09
48614;BME280;34408;51.426;5.444;2022-12-18T04:23:29;102613.28;;;1.98;50.09
48614;BME280;34408;51.426;5.444;2022-12-18T04:25:57;102619.31;;;2.00;50.07
48614;BME280;34408;51.426;5.444;2022-12-18T04:28:25;102624.75;;;1.98;50.13
48614;BME280;34408;51.426;5.444;2022-12-18T04:30:54;102627.50;;;1.96;50.16
48614;BME280;34408;51.426;5.444;2022-12-18T04:33:21;102630.28;;;1.95;49.93
48614;BME280;34408;51.426;5.444;2022-12-18T04:35:49;102634.75;;;1.94;50.28
48614;BME280;34408;51.426;5.444;2022-12-18T04:38:17;102642.81;;;1.93;50.16
48614;BME280;34408;51.426;5.444;2022-12-18T04:40:44;102636.69;;;1.92;50.10
48614;BME280;34408;51.426;5.444;2022-12-18T04:43:12;102644.63;;;1.92;49.91
48614;BME280;34408;51.426;5.444;2022-12-18T04:45:40;102642.94;;;1.91;49.84
48614;BME280;34408;51.426;5.444;2022-12-18T04:48:09;102652.72;;;1.91;49.58
48614;BME280;34408;51.426;5.444;2022-12-18T04:50:37;102659.81;;;1.90;50.07
48614;BME280;34408;51.426;5.444;2022-12-18T04:53:06;102667.06;;;1.88;49.75
48614;BME280;34408;51.426;5.444;2022-12-18T04:55:35;102656.44;;;1.88;50.07
48614;BME280;34408;51.426;5.444;2022-12-18T04:58:03;102661.03;;;1.86;49.87
48614;BME280;34408;51.426;5.444;2022-12-18T05:00:31;102668.00;;;1.87;49.53
48614;BME280;34408;51.426;5.444;2022-12-18T05:03:00;102668.25;;;1.84;49.84
48614;BME280;34408;51.426;5.444;2022-12-18T05:05:30;102666.31;;;1.86;50.02
48614;BME280;34408;51.426;5.444;2022-12-18T05:07:59;102664.75;;;1.84;49.79
48614;BME280;34408;51.426;5.444;2022-12-18T05:10:27;102664.75;;;1.84;49.78
48614;BME280;34408;51.426;5.444;2022-12-18T05:13:03;102661.50;;;1.80;49.47
48614;BME280;34408;51.426;5.444;2022-12-18T05:15:31;102658.84;;;1.80;49.79
48614;BME280;34408;51.426;5.444;2022-12-18T05:18:00;102667.75;;;1.79;49.19
48614;BME280;34408;51.426;5.444;2022-12-18T05:20:29;102661.75;;;1.77;49.57
48614;BME280;34408;51.426;5.444;2022-12-18T05:22:57;102663.56;;;1.77;49.60
48614;BME280;34408;51.426;5.444;2022-12-18T05:25:25;102663.56;;;1.77;49.74
48614;BME280;34408;51.426;5.444;2022-12-18T05:27:52;102655.72;;;1.75;49.52
48614;BME280;34408;51.426;5.444;2022-12-18T05:30:20;102662.97;;;1.73;49.61
48614;BME280;34408;51.426;5.444;2022-12-18T05:32:48;102655.03;;;1.73;49.51
48614;BME280;34408;51.426;5.444;2022-12-18T05:35:16;102658.63;;;1.72;49.54
48614;BME280;34408;51.426;5.444;2022-12-18T05:37:45;102649.72;;;1.73;49.83
48614;BME280;34408;51.426;5.444;2022-12-18T05:40:13;102648.16;;;1.71;49.61
48614;BME280;34408;51.426;5.444;2022-12-18T05:42:45;102641.16;;;1.70;49.72
48614;BME280;34408;51.426;5.444;2022-12-18T05:45:13;102633.34;;;1.68;49.65
48614;BME280;34408;51.426;5.444;2022-12-18T05:47:41;102636.00;;;1.68;49.48
48614;BME280;34408;51.426;5.444;2022-12-18T05:50:09;102643.09;;;1.68;49.57
48614;BME280;34408;51.426;5.444;2022-12-18T05:52:36;102650.22;;;1.67;49.46
48614;BME280;34408;51.426;5.444;2022-12-18T05:55:06;102646.09;;;1.63;49.70
48614;BME280;34408;51.426;5.444;2022-12-18T05:57:34;102641.78;;;1.62;49.64
48614;BME280;34408;51.426;5.444;2022-12-18T06:00:02;102635.63;;;1.61;49.61
48614;BME280;34408;51.426;5.444;2022-12-18T06:02:30;102637.44;;;1.61;49.81
48614;BME280;34408;51.426;5.444;2022-12-18T06:04:57;102636.72;;;1.70;49.75
48614;BME280;34408;51.426;5.444;2022-12-18T06:07:25;102638.13;;;1.74;49.54
48614;BME280;34408;51.426;5.444;2022-12-18T06:09:53;102629.94;;;1.77;49.10
48614;BME280;34408;51.426;5.444;2022-12-18T06:12:22;102639.94;;;1.85;49.08
48614;BME280;34408;51.426;5.444;2022-12-18T06:14:49;102634.75;;;1.94;48.77
48614;BME280;34408;51.426;5.444;2022-12-18T06:17:17;102642.81;;;2.04;48.42
48614;BME280;34408;51.426;5.444;2022-12-18T06:19:45;102646.91;;;2.19;48.07
48614;BME280;34408;51.426;5.444;2022-12-18T06:22:12;102648.69;;;2.30;47.97
48614;BME280;34408;51.426;5.444;2022-12-18T06:24:40;102643.22;;;2.43;48.06
48614;BME280;34408;51.426;5.444;2022-12-18T06:27:08;102643.19;;;2.54;47.16
48614;BME280;34408;51.426;5.444;2022-12-18T06:29:37;102639.41;;;2.68;46.71
48614;BME280;34408;51.426;5.444;2022-12-18T06:32:05;102635.75;;;2.80;46.23
48614;BME280;34408;51.426;5.444;2022-12-18T06:34:33;102638.47;;;2.89;46.54
48614;BME280;34408;51.426;5.444;2022-12-18T06:37:00;102618.09;;;2.90;46.34
48614;BME280;34408;51.426;5.444;2022-12-18T06:39:28;102639.34;;;3.11;45.84
48614;BME280;34408;51.426;5.444;2022-12-18T06:41:56;102629.75;;;3.19;45.43
48614;BME280;34408;51.426;5.444;2022-12-18T06:44:24;102636.75;;;3.20;45.21
48614;BME280;34408;51.426;5.444;2022-12-18T06:46:53;102611.81;;;3.12;45.31
48614;BME280;34408;51.426;5.444;2022-12-18T06:49:20;102630.22;;;3.24;45.82
48614;BME280;34408;51.426;5.444;2022-12-18T06:51:55;102630.53;;;3.10;45.25
48614;BME280;34408;51.426;5.444;2022-12-18T06:54:23;102624.94;;;2.92;45.99
48614;BME280;34408;51.426;5.444;2022-12-18T06:56:50;102625.63;;;2.74;45.98
48614;BME280;34408;51.426;5.444;2022-12-18T06:59:18;102618.34;;;2.55;46.68
48614;BME280;34408;51.426;5.444;2022-12-18T07:01:46;102624.19;;;2.38;47.18
48614;BME280;34408;51.426;5.444;2022-12-18T07:04:15;102631.34;;;2.26;47.76
48614;BME280;34408;51.426;5.444;2022-12-18T07:06:43;102634.72;;;2.17;47.79
48614;BME280;34408;51.426;5.444;2022-12-18T07:09:11;102618.47;;;2.10;48.10
48614;BME280;34408;51.426;5.444;2022-12-18T07:11:38;102617.16;;;2.05;48.10
48614;BME280;34408;51.426;5.444;2022-12-18T07:14:06;102610.66;;;1.98;48.32
48614;BME280;34408;51.426;5.444;2022-12-18T07:16:34;102611.00;;;1.93;47.97
48614;BME280;34408;51.426;5.444;2022-12-18T07:19:02;102608.97;;;1.85;48.34
48614;BME280;34408;51.426;5.444;2022-12-18T07:21:31;102597.66;;;1.83;48.23
48614;BME280;34408;51.426;5.444;2022-12-18T07:23:59;102588.38;;;1.78;48.75
48614;BME280;34408;51.426;5.444;2022-12-18T07:26:26;102570.06;;;1.75;48.72
48614;BME280;34408;51.426;5.444;2022-12-18T07:28:55;102560.69;;;1.71;49.01
48614;BME280;34408;51.426;5.444;2022-12-18T07:31:24;102564.31;;;1.70;48.51
48614;BME280;34408;51.426;5.444;2022-12-18T07:33:52;102558.25;;;1.79;48.78
48614;BME280;34408;51.426;5.444;2022-12-18T07:36:20;102562.31;;;1.94;48.48
48614;BME280;34408;51.426;5.444;2022-12-18T07:38:49;102564.44;;;2.11;47.91
48614;BME280;34408;51.426;5.444;2022-12-18T07:41:18;102560.94;;;2.22;47.37
48614;BME280;34408;51.426;5.444;2022-12-18T07:43:47;102566.91;;;2.35;47.49
48614;BME280;34408;51.426;5.444;2022-12-18T07:46:16;102556.25;;;2.46;46.72
48614;BME280;34408;51.426;5.444;2022-12-18T07:48:44;102538.94;;;2.63;46.51
48614;BME280;34408;51.426;5.444;2022-12-18T07:51:16;102526.56;;;2.73;46.51
48614;BME280;34408;51.426;5.444;2022-12-18T07:53:44;102524.56;;;2.86;46.00
48614;BME280;34408;51.426;5.444;2022-12-18T07:56:16;102530.50;;;3.00;45.80
48614;BME280;34408;51.426;5.444;2022-12-18T07:58:53;102522.88;;;3.06;46.08
48614;BME280;34408;51.426;5.444;2022-12-18T08:01:21;102511.84;;;3.11;45.49
48614;BME280;34408;51.426;5.444;2022-12-18T08:03:49;102516.63;;;3.17;45.49
48614;BME280;34408;51.426;5.444;2022-12-18T08:06:18;102512.38;;;3.05;45.63
48614;BME280;34408;51.426;5.444;2022-12-18T08:08:51;102528.63;;;2.90;46.24
48614;BME280;34408;51.426;5.444;2022-12-18T08:11:20;102518.03;;;2.70;45.96
48614;BME280;34408;51.426;5.444;2022-12-18T08:13:49;102531.94;;;2.62;46.63
48614;BME280;34408;51.426;5.444;2022-12-18T08:16:17;102530.56;;;2.47;47.61
48614;BME280;34408;51.426;5.444;2022-12-18T08:18:46;102526.41;;;2.33;47.76
48614;BME280;34408;51.426;5.444;2022-12-18T08:21:16;102529.94;;;2.22;47.81
48614;BME280;34408;51.426;5.444;2022-12-18T08:23:46;102541.31;;;2.13;47.98
48614;BME280;34408;51.426;5.444;2022-12-18T08:26:16;102547.94;;;2.08;48.58
48614;BME280;34408;51.426;5.444;2022-12-18T08:28:46;102551.94;;;2.02;48.39
48614;BME280;34408;51.426;5.444;2022-12-18T08:31:14;102539.91;;;1.98;49.00
48614;BME280;34408;51.426;5.444;2022-12-18T08:33:42;102544.59;;;1.94;48.66
48614;BME280;34408;51.426;5.444;2022-12-18T08:36:10;102550.88;;;1.93;49.13
48614;BME280;34408;51.426;5.444;2022-12-18T08:38:38;102543.28;;;1.89;49.47
48614;BME280;34408;51.426;5.444;2022-12-18T08:41:08;102541.72;;;1.86;49.46
48614;BME280;34408;51.426;5.444;2022-12-18T08:43:36;102526.31;;;1.80;49.46
48614;BME280;34408;51.426;5.444;2022-12-18T08:46:25;102526.44;;;1.79;49.55
48614;BME280;34408;51.426;5.444;2022-12-18T08:48:54;102515.00;;;1.78;49.82
48614;BME280;34408;51.426;5.444;2022-12-18T08:51:22;102511.91;;;1.73;49.83
48614;BME280;34408;51.426;5.444;2022-12-18T08:53:50;102514.56;;;1.73;50.10
48614;BME280;34408;51.426;5.444;2022-12-18T08:56:17;102520.09;;;1.70;50.18
48614;BME280;34408;51.426;5.444;2022-12-18T08:58:45;102521.19;;;1.68;50.40
48614;BME280;34408;51.426;5.444;2022-12-18T09:01:13;102516.59;;;1.70;50.17
48614;BME280;34408;51.426;5.444;2022-12-18T09:03:42;102507.38;;;1.85;50.13
48614;BME280;34408;51.426;5.444;2022-12-18T09:06:13;102504.59;;;1.98;49.74
48614;BME280;34408;51.426;5.444;2022-12-18T09:08:42;102509.47;;;2.13;49.58
48614;BME280;34408;51.426;5.444;2022-12-18T09:11:14;102519.66;;;2.29;49.09
48614;BME280;34408;51.426;5.444;2022-12-18T09:13:42;102519.03;;;2.37;48.71
48614;BME280;34408;51.426;5.444;2022-12-18T09:16:10;102532.31;;;2.37;49.01
48614;BME280;34408;51.426;5.444;2022-12-18T09:18:37;102537.16;;;2.32;48.99
48614;BME280;34408;51.426;5.444;2022-12-18T09:21:11;102537.78;;;2.24;48.90
48614;BME280;34408;51.426;5.444;2022-12-18T09:23:40;102528.28;;;2.10;49.20
48614;BME280;34408;51.426;5.444;2022-12-18T09:26:08;102536.38;;;2.09;49.63
48614;BME280;34408;51.426;5.444;2022-12-18T09:28:36;102527.09;;;2.03;49.83
48614;BME280;34408;51.426;5.444;2022-12-18T09:31:06;102516.16;;;1.96;50.06
48614;BME280;34408;51.426;5.444;2022-12-18T09:33:34;102510.00;;;1.96;50.13
48614;BME280;34408;51.426;5.444;2022-12-18T09:36:04;102500.38;;;1.95;50.38
48614;BME280;34408;51.426;5.444;2022-12-18T09:38:34;102498.22;;;1.89;50.73
48614;BME280;34408;51.426;5.444;2022-12-18T09:41:13;102504.50;;;1.88;50.42
48614;BME280;34408;51.426;5.444;2022-12-18T09:43:45;102501.13;;;1.86;50.74
48614;BME280;34408;51.426;5.444;2022-12-18T09:46:18;102520.78;;;1.83;50.66
48614;BME280;34408;51.426;5.444;2022-12-18T09:48:52;102502.47;;;1.80;50.75
48614;BME280;34408;51.426;5.444;2022-12-18T09:51:24;102504.41;;;1.78;51.19
48614;BME280;34408;51.426;5.444;2022-12-18T09:53:58;102485.97;;;1.77;51.16
48614;BME280;34408;51.426;5.444;2022-12-18T09:56:30;102484.16;;;1.77;51.31
48614;BME280;34408;51.426;5.444;2022-12-18T09:59:00;102476.91;;;1.79;51.32
48614;BME280;34408;51.426;5.444;2022-12-18T10:01:29;102484.72;;;1.92;51.08
48614;BME280;34408;51.426;5.444;2022-12-18T10:04:08;102486.84;;;2.09;50.71
48614;BME280;34408;51.426;5.444;2022-12-18T10:06:42;102480.00;;;2.27;50.34
48614;BME280;34408;51.426;5.444;2022-12-18T10:09:17;102465.47;;;2.43;50.29
48614;BME280;34408;51.426;5.444;2022-12-18T10:11:52;102472.72;;;2.61;49.29
48614;BME280;34408;51.426;5.444;2022-12-18T10:14:27;102480.66;;;2.82;49.01
48614;BME280;34408;51.426;5.444;2022-12-18T10:17:00;102489.84;;;2.99;48.84
48614;BME280;34408;51.426;5.444;2022-12-18T10:19:38;102481.66;;;3.12;48.17
48614;BME280;34408;51.426;5.444;2022-12-18T10:22:11;102480.81;;;3.11;48.35
48614;BME280;34408;51.426;5.444;2022-12-18T10:24:49;102480.19;;;2.98;48.70
48614;BME280;34408;51.426;5.444;2022-12-18T10:27:23;102480.25;;;2.87;49.59
48614;BME280;34408;51.426;5.444;2022-12-18T10:29:51;102471.66;;;2.74;49.96
48614;BME280;34408;51.426;5.444;2022-12-18T10:32:21;102467.84;;;2.67;50.10
48614;BME280;34408;51.426;5.444;2022-12-18T10:34:50;102458.00;;;2.57;50.19
48614;BME280;34408;51.426;5.444;2022-12-18T10:37:28;102452.66;;;2.48;50.98
48614;BME280;34408;51.426;5.444;2022-12-18T10:40:10;102441.56;;;2.43;50.46
48614;BME280;34408;51.426;5.444;2022-12-18T10:42:47;102439.31;;;2.38;51.13
48614;BME280;34408;51.426;5.444;2022-12-18T10:45:30;102428.97;;;2.35;51.08
48614;BME280;34408;51.426;5.444;2022-12-18T10:47:58;102430.19;;;2.31;51.15
48614;BME280;34408;51.426;5.444;2022-12-18T10:50:29;102430.56;;;2.26;51.40
48614;BME280;34408;51.426;5.444;2022-12-18T10:53:20;102430.84;;;2.23;51.66
48614;BME280;34408;51.426;5.444;2022-12-18T10:55:51;102430.84;;;2.23;51.81
48614;BME280;34408;51.426;5.444;2022-12-18T10:58:23;102421.31;;;2.21;51.97
48614;BME280;34408;51.426;5.444;2022-12-18T11:01:04;102407.59;;;2.16;52.18
48614;BME280;34408;51.426;5.444;2022-12-18T11:03:34;102401.47;;;2.15;52.10
48614;BME280;34408;51.426;5.444;2022-12-18T11:06:05;102399.53;;;2.17;52.32
48614;BME280;34408;51.426;5.444;2022-12-18T11:08:34;102396.03;;;2.17;52.28
48614;BME280;34408;51.426;5.444;2022-12-18T11:11:04;102399.53;;;2.17;52.47
48614;BME280;34408;51.426;5.444;2022-12-18T11:13:34;102403.84;;;2.18;52.30
48614;BME280;34408;51.426;5.444;2022-12-18T11:16:02;102408.91;;;2.21;52.42
48614;BME280;34408;51.426;5.444;2022-12-18T11:18:32;102400.81;;;2.23;52.63
48614;BME280;34408;51.426;5.444;2022-12-18T11:21:06;102412.00;;;2.26;52.24
48614;BME280;34408;51.426;5.444;2022-12-18T11:23:36;102404.75;;;2.28;52.28
48614;BME280;34408;51.426;5.444;2022-12-18T11:26:06;102382.25;;;2.23;52.62
48614;BME280;34408;51.426;5.444;2022-12-18T11:28:37;102377.25;;;2.29;52.48
48614;BME280;34408;51.426;5.444;2022-12-18T11:31:26;102378.09;;;2.30;52.46
48614;BME280;34408;51.426;5.444;2022-12-18T11:33:56;102360.50;;;2.29;52.67
48614;BME280;34408;51.426;5.444;2022-12-18T11:36:47;102358.63;;;2.20;52.86
48614;BME280;34408;51.426;5.444;2022-12-18T11:39:18;102378.81;;;2.32;52.75
48614;BME280;34408;51.426;5.444;2022-12-18T11:41:52;102378.69;;;2.34;53.22
48614;BME280;34408;51.426;5.444;2022-12-18T11:44:44;102381.22;;;2.35;53.08
48614;BME280;34408;51.426;5.444;2022-12-18T11:47:21;102374.94;;;2.36;53.03
48614;BME280;34408;51.426;5.444;2022-12-18T11:49:53;102364.44;;;2.35;53.22
48614;BME280;34408;51.426;5.444;2022-12-18T11:52:25;102367.81;;;2.37;52.94
48614;BME280;34408;51.426;5.444;2022-12-18T11:54:57;102368.66;;;2.37;53.16
48614;BME280;34408;51.426;5.444;2022-12-18T11:57:35;102358.03;;;2.37;52.84
48614;BME280;34408;51.426;5.444;2022-12-18T12:00:12;102356.22;;;2.38;52.94
48614;BME280;34408;51.426;5.444;2022-12-18T12:03:05;102349.72;;;2.51;53.20
48614;BME280;34408;51.426;5.444;2022-12-18T12:05:45;102351.63;;;2.70;52.59
48614;BME280;34408;51.426;5.444;2022-12-18T12:08:24;102342.91;;;2.89;52.37
48614;BME280;34408;51.426;5.444;2022-12-18T12:11:01;102337.91;;;3.05;51.48
48614;BME280;34408;51.426;5.444;2022-12-18T12:13:43;102332.66;;;3.24;51.42
48614;BME280;34408;51.426;5.444;2022-12-18T12:16:18;102323.72;;;3.35;50.50
48614;BME280;34408;51.426;5.444;2022-12-18T12:19:07;102319.63;;;3.50;50.41
48614;BME280;34408;51.426;5.444;2022-12-18T12:21:48;102325.22;;;3.47;50.32
48614;BME280;34408;51.426;5.444;2022-12-18T12:24:28;102322.72;;;3.36;50.92
48614;BME280;34408;51.426;5.444;2022-12-18T12:27:03;102318.09;;;3.29;51.52
48614;BME280;34408;51.426;5.444;2022-12-18T12:29:44;102320.19;;;3.25;51.38
48614;BME280;34408;51.426;5.444;2022-12-18T12:32:22;102310.69;;;3.22;51.36
48614;BME280;34408;51.426;5.444;2022-12-18T12:35:03;102306.78;;;3.17;51.70
48614;BME280;34408;51.426;5.444;2022-12-18T12:37:44;102301.72;;;3.14;52.10
48614;BME280;34408;51.426;5.444;2022-12-18T12:40:18;102300.47;;;3.08;52.47
48614;BME280;34408;51.426;5.444;2022-12-18T12:43:16;102290.94;;;3.06;52.10
48614;BME280;34408;51.426;5.444;2022-12-18T12:45:51;102293.03;;;3.02;51.76
48614;BME280;34408;51.426;5.444;2022-12-18T12:48:31;102286.19;;;3.00;52.45
48614;BME280;34408;51.426;5.444;2022-12-18T12:51:03;102284.25;;;3.11;52.17
48614;BME280;34408;51.426;5.444;2022-12-18T12:53:36;102273.22;;;3.25;51.91
48614;BME280;34408;51.426;5.444;2022-12-18T12:56:07;102275.19;;;3.43;51.53
48614;BME280;34408;51.426;5.444;2022-12-18T12:58:45;102272.34;;;3.64;50.86
48614;BME280;34408;51.426;5.444;2022-12-18T13:01:27;102266.31;;;3.81;50.57
48614;BME280;34408;51.426;5.444;2022-12-18T13:04:02;102252.56;;;3.95;49.87
48614;BME280;34408;51.426;5.444;2022-12-18T13:06:41;102257.00;;;4.04;49.81
48614;BME280;34408;51.426;5.444;2022-12-18T13:09:12;102259.56;;;3.96;49.67
48614;BME280;34408;51.426;5.444;2022-12-18T13:11:40;102251.88;;;3.83;50.58
48614;BME280;34408;51.426;5.444;2022-12-18T13:14:29;102254.16;;;3.69;50.40
48614;BME280;34408;51.426;5.444;2022-12-18T13:17:16;102252.06;;;3.53;51.45
48614;BME280;34408;51.426;5.444;2022-12-18T13:19:47;102239.66;;;3.44;51.17
48614;BME280;34408;51.426;5.444;2022-12-18T13:22:21;102241.19;;;3.37;51.58